createdAt,value
2022-11-03T00:02:00.358Z,9.16
2022-11-03T00:04:27.471Z,9.16
2022-11-03T00:06:55.495Z,9.15
2022-11-03T00:09:24.055Z,9.15
2022-11-03T00:11:52.063Z,9.17
2022-11-03T00:14:19.951Z,9.17
2022-11-03T00:16:47.501Z,9.20
2022-11-03T00:19:17.313Z,9.22
2022-11-03T00:21:45.478Z,9.26
2022-11-03T00:24:13.480Z,9.28
2022-11-03T00:26:40.705Z,9.32
2022-11-03T00:29:13.248Z,9.36
2022-11-03T00:31:42.349Z,9.40
2022-11-03T00:34:09.997Z,9.42
2022-11-03T00:36:45.000Z,9.45
2022-11-03T00:39:12.819Z,9.45
2022-11-03T00:41:40.549Z,9.48
2022-11-03T00:44:08.520Z,9.50
2022-11-03T00:46:35.823Z,9.50
2022-11-03T00:49:04.602Z,9.52
2022-11-03T00:51:31.982Z,9.55
2022-11-03T00:54:01.202Z,9.54
2022-11-03T00:56:37.192Z,9.56
2022-11-03T00:59:06.178Z,9.56
2022-11-03T01:01:46.540Z,9.57
2022-11-03T01:04:34.087Z,9.57
2022-11-03T01:07:01.874Z,9.59
2022-11-03T01:09:31.964Z,9.60
2022-11-03T01:12:14.986Z,9.61
2022-11-03T01:14:43.240Z,9.61
2022-11-03T01:17:12.937Z,9.57
2022-11-03T01:19:40.174Z,9.58
2022-11-03T01:22:10.692Z,9.59
2022-11-03T01:24:42.447Z,9.61
2022-11-03T01:27:11.437Z,9.61
2022-11-03T01:29:38.365Z,9.60
2022-11-03T01:32:05.608Z,9.61
2022-11-03T01:34:32.689Z,9.60
2022-11-03T01:36:59.602Z,9.61
2022-11-03T01:39:26.785Z,9.60
2022-11-03T01:41:54.375Z,9.60
2022-11-03T01:44:40.058Z,9.48
2022-11-03T01:47:29.787Z,9.52
2022-11-03T01:50:08.467Z,9.50
2022-11-03T01:52:45.003Z,9.48
2022-11-03T01:55:25.080Z,9.50
2022-11-03T01:58:01.412Z,9.51
2022-11-03T02:00:28.993Z,9.52
2022-11-03T02:02:56.515Z,9.53
2022-11-03T02:05:26.431Z,9.57
2022-11-03T02:08:06.091Z,9.57
2022-11-03T02:10:33.930Z,9.58
2022-11-03T02:13:03.137Z,9.59
2022-11-03T02:15:31.701Z,9.59
2022-11-03T02:17:59.977Z,9.62
2022-11-03T02:20:32.064Z,9.65
2022-11-03T02:23:17.380Z,9.66
2022-11-03T02:25:53.532Z,9.69
2022-11-03T02:28:24.084Z,9.71
2022-11-03T02:31:00.205Z,9.72
2022-11-03T02:33:58.206Z,9.74
2022-11-03T02:36:51.193Z,9.75
2022-11-03T02:39:32.195Z,9.75
2022-11-03T02:42:03.440Z,9.78
2022-11-03T02:44:34.219Z,9.79
2022-11-03T02:47:05.402Z,9.81
2022-11-03T02:49:32.535Z,9.83
2022-11-03T02:52:04.766Z,9.86
2022-11-03T02:54:44.583Z,9.88
2022-11-03T02:57:21.545Z,9.89
2022-11-03T02:59:59.058Z,9.90
2022-11-03T06:04:21.447Z,8.94
2022-11-03T06:06:53.301Z,9.14
2022-11-03T06:09:25.561Z,9.36
2022-11-03T06:11:56.455Z,9.60
2022-11-03T06:14:28.498Z,9.86
2022-11-03T06:17:07.708Z,10.07
2022-11-03T06:19:48.312Z,10.32
2022-11-03T06:22:29.511Z,10.54
2022-11-03T06:25:01.760Z,10.75
2022-11-03T06:27:34.504Z,10.95
2022-11-03T06:30:29.868Z,11.17
2022-11-03T06:33:25.602Z,11.35
2022-11-03T06:35:55.912Z,11.56
2022-11-03T06:38:26.248Z,11.71
2022-11-03T06:40:54.274Z,11.87
2022-11-03T06:43:45.404Z,12.03
2022-11-03T06:46:21.151Z,12.08
2022-11-03T06:48:48.718Z,12.11
2022-11-03T06:51:23.077Z,12.16
2022-11-03T06:53:52.687Z,12.22
2022-11-03T06:56:22.682Z,12.15
2022-11-03T06:58:56.365Z,12.12
2022-11-03T07:01:27.267Z,12.03
2022-11-03T07:04:01.432Z,12.05
2022-11-03T07:06:37.570Z,11.99
2022-11-03T07:09:09.956Z,12.07
2022-11-03T07:12:09.217Z,12.03
2022-11-03T07:14:37.275Z,12.19
2022-11-03T07:17:07.226Z,12.26
2022-11-03T07:19:42.637Z,12.31
2022-11-03T07:22:26.098Z,12.33
2022-11-03T07:24:57.057Z,12.42
2022-11-03T07:27:28.412Z,12.43
2022-11-03T07:30:06.028Z,12.42
2022-11-03T07:32:34.485Z,12.36
2022-11-03T07:35:26.509Z,12.41
2022-11-03T07:37:55.610Z,12.31
2022-11-03T07:40:25.417Z,12.28
2022-11-03T07:42:58.399Z,12.31
2022-11-03T07:45:37.887Z,12.38
2022-11-03T07:48:26.734Z,12.32
2022-11-03T07:50:56.694Z,12.42
2022-11-03T07:53:40.110Z,12.48
2022-11-03T07:56:25.761Z,12.50
2022-11-03T07:59:00.272Z,12.41
2022-11-03T08:01:31.376Z,12.34
2022-11-03T08:04:05.981Z,12.38
2022-11-03T08:06:33.664Z,12.34
2022-11-03T08:09:00.973Z,12.47
2022-11-03T08:11:29.682Z,12.52
2022-11-03T08:13:57.681Z,12.53
2022-11-03T08:16:25.359Z,12.57
2022-11-03T08:18:52.543Z,12.50
2022-11-03T08:21:19.914Z,12.37
2022-11-03T08:23:47.810Z,12.43
2022-11-03T08:26:15.851Z,12.41
2022-11-03T08:28:43.268Z,12.36
2022-11-03T08:31:12.853Z,12.32
2022-11-03T08:33:40.983Z,12.29
2022-11-03T08:36:09.737Z,12.25
2022-11-03T08:38:37.838Z,12.16
2022-11-03T08:41:05.615Z,12.23
2022-11-03T08:43:32.783Z,12.30
2022-11-03T08:46:08.233Z,12.25
2022-11-03T08:48:40.414Z,12.31
2022-11-03T08:51:10.330Z,12.26
2022-11-03T08:53:38.900Z,12.16
2022-11-03T08:56:10.429Z,12.14
2022-11-03T08:58:40.135Z,12.11
2022-11-03T09:01:08.183Z,12.03
2022-11-03T09:03:35.864Z,11.97
2022-11-03T09:06:03.211Z,11.93
2022-11-03T09:11:17.858Z,11.77
2022-11-03T09:13:45.497Z,11.59
2022-11-03T09:16:12.995Z,11.54
2022-11-03T09:18:40.660Z,11.39
2022-11-03T09:21:08.933Z,11.41
2022-11-03T09:23:36.081Z,11.23
2022-11-03T09:26:03.494Z,11.18
2022-11-03T09:28:30.731Z,11.09
2022-11-03T09:30:58.161Z,11.02
2022-11-03T09:33:25.557Z,11.00
2022-11-03T09:35:53.048Z,11.01
2022-11-03T09:38:20.411Z,10.99
2022-11-03T09:43:16.434Z,10.85
2022-11-03T09:45:43.668Z,10.82
2022-11-03T09:48:12.514Z,10.83
2022-11-03T09:50:40.622Z,10.77
2022-11-03T09:53:12.348Z,10.78
2022-11-03T09:55:39.871Z,10.66
2022-11-03T09:58:15.021Z,10.65
2022-11-03T10:00:42.459Z,10.59
2022-11-03T10:03:20.548Z,10.56
2022-11-03T10:05:48.441Z,10.52
2022-11-03T10:08:27.631Z,10.55
2022-11-03T10:10:55.196Z,10.52
2022-11-03T10:13:28.641Z,10.53
2022-11-03T10:15:57.108Z,10.53
2022-11-03T10:18:24.623Z,10.60
2022-11-03T10:20:52.155Z,10.52
2022-11-03T10:23:19.422Z,10.55
2022-11-03T13:59:51.496Z,8.19
2022-11-03T14:05:07.236Z,8.47
2022-11-03T14:07:36.615Z,8.63
2022-11-03T14:10:04.641Z,8.80
2022-11-03T14:12:32.276Z,9.01
2022-11-03T14:15:00.408Z,9.17
2022-11-03T14:17:27.721Z,9.36
2022-11-03T14:19:59.164Z,9.47
2022-11-03T14:22:33.356Z,9.57
2022-11-03T14:25:01.470Z,9.69
2022-11-03T14:27:28.906Z,9.81
2022-11-03T14:29:56.327Z,9.90
2022-11-03T14:32:23.659Z,9.96
2022-11-03T14:34:50.992Z,10.02
2022-11-03T14:37:18.192Z,10.10
2022-11-03T14:39:45.597Z,10.18
2022-11-03T14:42:17.249Z,10.19
2022-11-03T14:44:46.399Z,10.25
2022-11-03T14:47:18.089Z,10.31
2022-11-03T14:49:46.689Z,10.26
2022-11-03T14:52:14.782Z,10.26
2022-11-03T14:54:42.482Z,10.32
2022-11-03T14:57:10.037Z,10.33
2022-11-03T14:59:37.690Z,10.37
2022-11-03T15:02:06.279Z,10.32
2022-11-03T15:04:34.131Z,10.40
2022-11-03T15:07:01.457Z,10.45
2022-11-03T15:09:28.883Z,10.47
2022-11-03T15:11:56.017Z,10.52
2022-11-03T15:14:23.365Z,10.49
2022-11-03T15:16:50.632Z,10.49
2022-11-03T15:19:17.990Z,10.55
2022-11-03T15:21:44.927Z,10.54
2022-11-03T15:26:59.546Z,10.60
2022-11-03T15:29:26.795Z,10.59
2022-11-03T15:31:53.956Z,10.59
2022-11-03T15:34:20.854Z,10.62
2022-11-03T15:36:48.062Z,10.66
2022-11-03T15:39:16.402Z,10.66
2022-11-03T15:41:43.745Z,10.67
2022-11-03T15:44:10.687Z,10.65
2022-11-03T15:46:38.092Z,10.65
2022-11-03T15:49:05.367Z,10.68
2022-11-03T15:51:32.714Z,10.67
2022-11-03T15:53:59.820Z,10.70
2022-11-03T15:56:27.687Z,10.69
2022-11-03T15:58:55.076Z,10.66
2022-11-03T16:01:22.594Z,10.67
2022-11-03T16:03:49.772Z,10.65
2022-11-03T16:06:16.907Z,10.67
2022-11-03T16:08:43.924Z,10.62
2022-11-03T16:11:11.182Z,10.52
2022-11-03T16:13:39.583Z,10.56
2022-11-03T16:16:07.387Z,10.50
2022-11-03T16:18:35.018Z,10.50
2022-11-03T16:21:02.111Z,10.45
2022-11-03T16:23:29.616Z,10.42
2022-11-03T16:25:57.107Z,10.41
2022-11-03T16:28:24.647Z,10.38
2022-11-03T16:30:54.516Z,10.37
2022-11-03T16:33:22.603Z,10.36
2022-11-03T16:35:49.811Z,10.40
2022-11-03T16:38:17.148Z,10.38
2022-11-03T16:40:44.735Z,10.36
2022-11-03T16:43:12.854Z,10.33
2022-11-03T16:45:40.014Z,10.35
2022-11-03T16:48:07.969Z,10.37
2022-11-03T16:50:41.512Z,10.36
2022-11-03T16:53:11.914Z,10.37
2022-11-03T16:55:39.473Z,10.40
2022-11-03T16:58:06.981Z,10.42
2022-11-03T17:00:34.164Z,10.41
2022-11-03T17:03:01.635Z,10.45
2022-11-03T17:05:28.624Z,10.47
2022-11-03T17:07:56.195Z,10.46
2022-11-03T17:10:24.249Z,10.48
2022-11-03T17:12:51.579Z,10.46
2022-11-03T17:15:19.102Z,10.43
2022-11-03T17:17:46.650Z,10.37
2022-11-03T17:20:13.729Z,10.41
2022-11-03T17:22:41.211Z,10.40
2022-11-03T17:25:11.371Z,10.37
2022-11-03T17:27:46.566Z,10.35
2022-11-03T17:30:35.097Z,10.39
2022-11-03T17:33:07.304Z,10.32
2022-11-03T17:35:46.477Z,10.32
2022-11-03T17:38:16.736Z,10.32
2022-11-03T17:40:48.720Z,10.34
2022-11-03T17:43:20.668Z,10.29
2022-11-03T17:45:48.778Z,10.27
2022-11-03T17:48:16.209Z,10.28
2022-11-03T17:50:47.672Z,10.22
2022-11-03T20:26:49.781Z,7.57
2022-11-03T20:29:16.337Z,7.69
2022-11-03T20:31:45.155Z,7.85
2022-11-03T20:34:16.480Z,8.03
2022-11-03T20:36:44.063Z,8.21
2022-11-03T20:39:15.712Z,8.41
2022-11-03T20:41:47.254Z,8.61
2022-11-03T20:44:15.874Z,8.80
2022-11-03T20:46:43.995Z,8.93
2022-11-03T20:49:11.581Z,9.05
2022-11-03T20:51:45.473Z,9.22
2022-11-03T20:54:18.521Z,9.28
2022-11-03T20:56:46.148Z,9.43
2022-11-03T20:59:17.475Z,9.53
2022-11-03T21:01:45.185Z,9.59
2022-11-03T21:04:15.156Z,9.66
2022-11-03T21:06:42.623Z,9.69
2022-11-03T21:09:18.418Z,9.71
2022-11-03T21:11:47.071Z,9.76
2022-11-03T21:14:30.037Z,9.78
2022-11-03T21:17:16.055Z,9.79
2022-11-03T21:20:02.010Z,9.82
2022-11-03T21:25:23.651Z,9.87
2022-11-03T21:27:51.573Z,9.82
2022-11-03T21:30:19.151Z,9.92
2022-11-03T21:32:48.081Z,9.87
2022-11-03T21:35:20.623Z,9.90
2022-11-03T21:37:48.435Z,9.89
2022-11-03T21:40:15.702Z,9.84
2022-11-03T21:43:01.256Z,9.83
2022-11-03T21:45:28.538Z,9.80
2022-11-03T21:48:14.825Z,9.80
2022-11-03T21:50:43.176Z,9.77
2022-11-03T21:53:11.731Z,9.78
2022-11-03T21:55:40.137Z,9.77
2022-11-03T21:58:08.193Z,9.69
2022-11-03T22:00:35.542Z,9.70
2022-11-03T22:03:02.650Z,9.66
2022-11-03T22:05:30.428Z,9.66
2022-11-03T22:07:57.746Z,9.67
2022-11-03T22:10:25.246Z,9.64
2022-11-03T22:12:52.515Z,9.67
2022-11-03T22:15:38.509Z,9.65
2022-11-03T22:18:06.681Z,9.74
2022-11-03T22:20:54.650Z,9.74
2022-11-03T22:23:41.015Z,9.69
2022-11-03T22:26:32.802Z,9.75
2022-11-03T22:29:18.473Z,9.69
2022-11-03T22:31:45.967Z,9.57
2022-11-03T22:34:32.499Z,9.65
2022-11-03T22:36:59.752Z,9.65
2022-11-03T22:39:45.441Z,9.61
2022-11-03T22:42:31.698Z,9.63
2022-11-03T22:45:18.201Z,9.58
2022-11-03T22:47:45.428Z,9.58
2022-11-03T22:50:12.502Z,9.55
2022-11-03T22:52:40.052Z,9.49
2022-11-03T22:55:07.575Z,9.43
2022-11-03T22:57:34.753Z,9.33
2022-11-03T23:00:02.011Z,9.21
2022-11-03T23:02:29.131Z,9.08
2022-11-03T23:04:56.289Z,8.95
2022-11-03T23:07:28.422Z,8.76
2022-11-03T23:09:59.252Z,8.71
2022-11-03T23:12:26.431Z,8.65
2022-11-03T23:15:11.974Z,8.65
2022-11-03T23:18:01.973Z,8.64
2022-11-03T23:20:57.935Z,8.66
2022-11-03T23:23:43.585Z,8.71
2022-11-03T23:26:10.829Z,8.76
2022-11-03T23:28:37.859Z,8.83
2022-11-03T23:31:05.517Z,8.86
2022-11-03T23:33:32.589Z,8.93
2022-11-03T23:36:07.829Z,8.99
2022-11-03T23:38:36.274Z,9.05
2022-11-03T23:41:08.743Z,9.11
2022-11-03T23:43:36.293Z,9.15
2022-11-03T23:46:21.818Z,9.19
2022-11-03T23:48:49.407Z,9.23
2022-11-03T23:51:24.275Z,9.32
2022-11-03T23:53:51.622Z,9.28
2022-11-03T23:56:39.155Z,9.31
2022-11-03T23:59:07.376Z,9.36
